Time;durP1;ratioP1;P1;durP2;ratioP2;P2;SDS_P1;SDS_P2;PMS_P1;PMS_P2;Temp;Humidity;BMP_temperature;BMP_pressure;BME280_temperature;BME280_humidity;BME280_pressure;Samples;Min_cycle;Max_cycle;Signal;HPM_P1;HPM_P2
2021/07/19 00:01:26;;;;;;;8.43;4.15;;;18.10;78.40;;;;;;5034483;28;20033;-41
2021/07/19 00:03:51;;;;;;;5.68;3.75;;;18.10;78.60;;;;;;5034677;28;20025;-37
2021/07/19 00:06:17;;;;;;;10.95;4.43;;;18.10;78.30;;;;;;5034299;28;20048;-37
2021/07/19 00:08:43;;;;;;;7.63;4.55;;;18.00;78.40;;;;;;5033997;28;20022;-37
2021/07/19 00:11:09;;;;;;;7.22;3.83;;;18.00;78.20;;;;;;5033326;28;20032;-37
2021/07/19 00:13:35;;;;;;;8.50;4.68;;;18.10;77.90;;;;;;5033959;28;20102;-37
2021/07/19 00:16:01;;;;;;;7.05;4.18;;;18.00;78.00;;;;;;5033922;28;20160;-37
2021/07/19 00:18:27;;;;;;;5.70;3.83;;;18.00;77.80;;;;;;5034299;28;20485;-37
2021/07/19 00:20:52;;;;;;;7.88;4.78;;;17.90;77.90;;;;;;5033791;28;20018;-37
2021/07/19 00:23:18;;;;;;;8.93;4.40;;;17.80;78.00;;;;;;5032419;28;20024;-37
2021/07/19 00:25:44;;;;;;;11.82;4.82;;;17.80;77.80;;;;;;5033544;28;20037;-37
2021/07/19 00:28:09;;;;;;;6.22;3.63;;;17.90;77.70;;;;;;5032327;28;20030;-37
2021/07/19 00:30:37;;;;;;;10.25;5.45;;;17.90;77.50;;;;;;5033768;28;20017;-37
2021/07/19 00:33:03;;;;;;;8.15;4.82;;;17.80;78.10;;;;;;5033700;28;20376;-37
2021/07/19 00:35:29;;;;;;;7.55;3.83;;;17.80;77.80;;;;;;5033646;28;20105;-37
2021/07/19 00:37:55;;;;;;;9.18;4.90;;;17.80;77.70;;;;;;5033555;28;20049;-37
2021/07/19 00:40:24;;;;;;;6.82;4.32;;;17.70;77.90;;;;;;5033459;28;20033;-36
2021/07/19 00:42:50;;;;;;;7.75;4.53;;;17.80;77.80;;;;;;5033412;28;20075;-41
2021/07/19 00:45:24;;;;;;;6.28;4.30;;;17.60;78.10;;;;;;5033590;28;20389;-36
2021/07/19 00:47:50;;;;;;;9.57;4.03;;;17.50;78.60;;;;;;5033794;28;20474;-37
2021/07/19 00:50:18;;;;;;;6.82;4.72;;;17.60;78.40;;;;;;5033523;28;20461;-36
2021/07/19 00:52:45;;;;;;;10.18;4.60;;;17.50;78.50;;;;;;5033398;28;20416;-36
2021/07/19 00:55:12;;;;;;;9.43;4.45;;;17.50;78.60;;;;;;5033218;28;20060;-36
2021/07/19 00:57:40;;;;;;;9.60;4.72;;;17.60;78.30;;;;;;5033479;28;20418;-36
2021/07/19 01:00:09;;;;;;;9.30;4.55;;;17.50;78.60;;;;;;5033273;28;20381;-37
2021/07/19 01:02:37;;;;;;;10.20;5.10;;;17.60;78.40;;;;;;5033329;28;20033;-37
2021/07/19 01:05:05;;;;;;;10.93;5.32;;;17.50;78.50;;;;;;5032910;28;20022;-36
2021/07/19 01:07:33;;;;;;;10.15;5.03;;;17.40;78.90;;;;;;5032937;28;20116;-37
2021/07/19 01:10:00;;;;;;;8.25;5.10;;;17.40;79.20;;;;;;5032857;28;20017;-36
2021/07/19 01:12:26;;;;;;;7.18;4.70;;;17.40;79.10;;;;;;5032653;28;20057;-36
2021/07/19 01:14:51;;;;;;;9.38;5.10;;;17.30;79.70;;;;;;5032622;28;20025;-37
2021/07/19 01:17:17;;;;;;;12.63;4.57;;;17.30;79.80;;;;;;5032763;28;20034;-37
2021/07/19 01:19:47;;;;;;;9.32;5.47;;;17.20;79.80;;;;;;5032551;28;20021;-36
2021/07/19 01:22:50;;;;;;;8.40;6.00;;;17.20;79.90;;;;;;5031201;28;20056;-36
2021/07/19 01:25:57;;;;;;;6.35;5.00;;;17.00;80.40;;;;;;5032942;28;20037;-36
2021/07/19 01:28:44;;;;;;;9.27;5.22;;;17.00;80.50;;;;;;5032920;28;20487;-36
2021/07/19 01:31:14;;;;;;;10.75;6.05;;;17.10;80.10;;;;;;5032784;28;20028;-36
2021/07/19 01:33:44;;;;;;;9.10;5.37;;;17.00;80.20;;;;;;5032549;28;20030;-36
2021/07/19 01:36:11;;;;;;;;;;;16.80;80.60;;;;;;5033344;28;20045;-36
2021/07/19 01:38:37;;;;;;;8.75;5.53;;;16.90;80.40;;;;;;5032694;28;19909;-39
2021/07/19 01:41:04;;;;;;;8.20;5.35;;;16.90;80.20;;;;;;5031477;28;20037;-36
2021/07/19 01:43:30;;;;;;;8.20;6.10;;;16.90;80.20;;;;;;5032904;28;20374;-36
2021/07/19 01:45:56;;;;;;;12.32;5.60;;;16.90;80.50;;;;;;5032459;28;20061;-35
2021/07/19 01:48:23;;;;;;;12.20;6.13;;;16.90;80.40;;;;;;5032574;28;20373;-37
2021/07/19 01:50:50;;;;;;;11.18;5.97;;;16.80;80.30;;;;;;5032516;28;20014;-38
2021/07/19 01:53:16;;;;;;;8.88;5.40;;;16.90;80.00;;;;;;5032467;28;20029;-38
2021/07/19 01:55:43;;;;;;;9.75;6.05;;;16.80;80.20;;;;;;5031207;28;20026;-36
2021/07/19 01:58:10;;;;;;;13.43;6.10;;;16.80;80.40;;;;;;5032459;28;20184;-36
2021/07/19 02:00:36;;;;;;;9.05;5.15;;;16.80;80.20;;;;;;5032454;28;20052;-36
2021/07/19 02:03:01;;;;;;;10.20;6.53;;;16.80;80.20;;;;;;5032771;28;20034;-36
2021/07/19 02:05:27;;;;;;;11.50;6.65;;;16.80;80.50;;;;;;5032713;28;20047;-37
2021/07/19 02:07:58;;;;;;;10.55;6.55;;;16.70;80.60;;;;;;5032517;28;20398;-41
2021/07/19 02:10:24;;;;;;;11.57;6.50;;;16.70;80.70;;;;;;5032467;28;20022;-36
2021/07/19 02:12:53;;;;;;;13.02;7.40;;;16.60;80.80;;;;;;5032361;28;20018;-36
2021/07/19 02:15:20;;;;;;;9.23;6.43;;;16.60;81.00;;;;;;5032584;28;20034;-36
2021/07/19 02:18:07;;;;;;;15.40;6.82;;;16.50;81.20;;;;;;5032581;28;20026;-36
2021/07/19 02:20:33;;;;;;;13.25;7.30;;;16.40;81.50;;;;;;5032568;28;20045;-36
2021/07/19 02:23:02;;;;;;;12.35;6.63;;;16.40;81.30;;;;;;5032324;28;20029;-36
2021/07/19 02:25:28;;;;;;;12.10;6.78;;;16.30;81.70;;;;;;5032417;28;20022;-39
2021/07/19 02:27:55;;;;;;;12.23;7.07;;;16.40;81.60;;;;;;5031985;28;20114;-37
2021/07/19 02:30:22;;;;;;;11.88;7.40;;;16.30;81.70;;;;;;5032171;28;20025;-36
2021/07/19 02:32:53;;;;;;;9.70;6.63;;;16.50;81.30;;;;;;5032152;28;20024;-37
2021/07/19 02:35:20;;;;;;;8.88;6.43;;;16.40;81.40;;;;;;5035329;28;20465;-36
2021/07/19 02:37:50;;;;;;;9.95;7.15;;;16.30;81.60;;;;;;5035798;28;20029;-36
2021/07/19 02:40:18;;;;;;;12.37;6.33;;;16.40;81.60;;;;;;5035746;28;20036;-36
2021/07/19 02:42:49;;;;;;;15.45;7.65;;;16.30;81.50;;;;;;5035625;28;20389;-36
2021/07/19 02:45:16;;;;;;;12.07;6.65;;;16.30;81.80;;;;;;5036056;28;20488;-36
2021/07/19 02:47:44;;;;;;;9.60;6.75;;;16.20;82.10;;;;;;5034128;28;20551;-36
2021/07/19 02:50:12;;;;;;;13.50;7.65;;;16.20;82.30;;;;;;5035523;28;20032;-36
2021/07/19 02:52:39;;;;;;;11.75;7.30;;;16.20;82.40;;;;;;5035420;28;20029;-36
2021/07/19 02:55:06;;;;;;;10.20;6.88;;;16.30;81.80;;;;;;5035420;28;20018;-36
2021/07/19 02:57:37;;;;;;;11.50;8.07;;;16.30;81.80;;;;;;5035404;28;20060;-36
2021/07/19 03:00:21;;;;;;;10.93;7.50;;;16.20;82.30;;;;;;5035657;28;20104;-36
2021/07/19 03:02:52;;;;;;;12.43;8.07;;;16.20;82.30;;;;;;5035395;28;20032;-36
2021/07/19 03:05:23;;;;;;;11.27;7.47;;;16.20;82.40;;;;;;5035484;28;20084;-36
2021/07/19 03:07:53;;;;;;;15.57;8.55;;;16.20;82.20;;;;;;5035568;28;20026;-36
2021/07/19 03:10:22;;;;;;;16.60;8.13;;;16.20;82.00;;;;;;5035520;28;20116;-36
2021/07/19 03:12:50;;;;;;;12.95;8.13;;;16.30;82.20;;;;;;5035151;28;20048;-36
2021/07/19 03:15:17;;;;;;;16.88;8.65;;;16.40;81.40;;;;;;5035161;28;20029;-36
2021/07/19 03:17:44;;;;;;;12.05;8.23;;;16.30;81.70;;;;;;5035171;28;20028;-38
2021/07/19 03:20:12;;;;;;;13.48;8.70;;;16.30;81.60;;;;;;5033797;28;20037;-37
2021/07/19 03:22:39;;;;;;;13.85;8.50;;;16.30;82.10;;;;;;5035032;28;20045;-44
2021/07/19 03:25:08;;;;;;;12.63;7.60;;;16.10;82.50;;;;;;5035309;28;20457;-37
2021/07/19 03:27:36;;;;;;;14.30;7.63;;;16.20;82.40;;;;;;5034722;28;20038;-37
2021/07/19 03:30:06;;;;;;;10.80;7.38;;;16.10;82.50;;;;;;5034930;28;20117;-37
2021/07/19 03:32:33;;;;;;;12.88;8.63;;;16.10;82.40;;;;;;5034884;28;20037;-37
2021/07/19 03:34:59;;;;;;;12.40;7.75;;;16.10;82.50;;;;;;5034825;28;20112;-37
2021/07/19 03:37:26;;;;;;;16.88;8.13;;;16.10;82.70;;;;;;5035074;28;20433;-37
2021/07/19 03:39:53;;;;;;;12.75;8.20;;;16.20;82.60;;;;;;5034971;28;20036;-37
2021/07/19 03:42:20;;;;;;;11.73;7.95;;;16.30;81.60;;;;;;5034884;28;20096;-37
2021/07/19 03:44:47;;;;;;;16.35;9.52;;;16.30;81.50;;;;;;5034671;28;20029;-37
2021/07/19 03:47:14;;;;;;;16.92;7.70;;;16.10;82.40;;;;;;5033181;28;20025;-37
2021/07/19 03:49:40;;;;;;;22.58;8.15;;;16.00;83.00;;;;;;5034742;28;20032;-37
2021/07/19 03:52:07;;;;;;;12.88;7.60;;;16.00;82.90;;;;;;5034572;28;20021;-37
2021/07/19 03:54:33;;;;;;;12.75;8.65;;;15.90;83.00;;;;;;5033144;28;20057;-37
2021/07/19 03:57:03;;;;;;;14.45;9.23;;;16.00;83.00;;;;;;5034342;28;20482;-37
2021/07/19 03:59:32;;;;;;;14.02;7.95;;;16.10;82.80;;;;;;5034364;28;20021;-37
2021/07/19 04:02:06;;;;;;;13.20;7.97;;;16.00;82.80;;;;;;5034571;28;20037;-37
2021/07/19 04:04:41;;;;;;;13.48;8.88;;;16.00;83.00;;;;;;5034760;28;20096;-37
2021/07/19 04:07:13;;;;;;;19.92;9.98;;;15.90;83.20;;;;;;5034762;28;20377;-37
2021/07/19 04:09:40;;;;;;;12.75;8.05;;;15.90;83.50;;;;;;5034216;28;20014;-37
2021/07/19 04:12:09;;;;;;;16.10;9.20;;;15.90;83.40;;;;;;5034426;28;20488;-37
2021/07/19 04:14:35;;;;;;;15.07;8.75;;;16.00;83.30;;;;;;5034175;28;20473;-37
2021/07/19 04:17:01;;;;;;;16.88;9.23;;;16.00;83.20;;;;;;5034055;28;20108;-37
2021/07/19 04:19:27;;;;;;;22.63;8.95;;;16.10;82.90;;;;;;5034062;28;20385;-37
2021/07/19 04:21:53;;;;;;;15.00;8.52;;;16.10;82.90;;;;;;5034091;28;20025;-39
2021/07/19 04:24:19;;;;;;;15.60;9.48;;;16.10;82.90;;;;;;5034225;28;20116;-37
2021/07/19 04:26:45;;;;;;;23.80;10.30;;;16.10;82.90;;;;;;5033634;28;20433;-37
2021/07/19 04:29:11;;;;;;;14.90;8.07;;;16.10;82.90;;;;;;5034262;28;20022;-37
2021/07/19 04:31:37;;;;;;;17.15;9.88;;;16.10;83.10;;;;;;5033811;28;20026;-37
2021/07/19 04:34:02;;;;;;;17.55;9.00;;;16.20;82.40;;;;;;5034004;28;20040;-37
2021/07/19 04:36:31;;;;;;;15.75;8.88;;;16.20;82.70;;;;;;5033669;28;20036;-37
2021/07/19 04:38:57;;;;;;;15.35;8.70;;;16.30;82.40;;;;;;5033860;28;20029;-37
2021/07/19 04:41:23;;;;;;;13.13;8.85;;;16.30;82.30;;;;;;5033850;28;20079;-37
2021/07/19 04:43:48;;;;;;;14.00;8.93;;;16.30;82.10;;;;;;5033829;28;20377;-37
2021/07/19 04:46:15;;;;;;;15.40;8.32;;;16.30;82.20;;;;;;5033470;28;20021;-36
2021/07/19 04:48:41;;;;;;;11.52;8.82;;;16.30;82.30;;;;;;5033488;28;20096;-37
2021/07/19 04:51:07;;;;;;;14.80;9.25;;;16.30;82.40;;;;;;5033406;28;20119;-37
2021/07/19 04:53:33;;;;;;;15.50;8.80;;;16.40;82.20;;;;;;5033617;28;20018;-37
2021/07/19 04:56:00;;;;;;;13.55;8.80;;;16.50;81.60;;;;;;5033614;28;20108;-37
2021/07/19 04:58:28;;;;;;;12.35;8.85;;;16.40;81.90;;;;;;5033244;28;20465;-37
2021/07/19 05:00:58;;;;;;;13.98;8.98;;;16.50;81.60;;;;;;5033201;28;20026;-37
2021/07/19 05:03:26;;;;;;;16.97;9.60;;;16.50;81.90;;;;;;5033196;28;20022;-37
2021/07/19 05:05:53;;;;;;;13.15;8.52;;;16.70;81.20;;;;;;5033444;28;20036;-37
2021/07/19 05:08:20;;;;;;;22.05;8.68;;;16.80;80.90;;;;;;5033099;28;20026;-37
2021/07/19 05:10:48;;;;;;;14.13;9.10;;;16.70;80.90;;;;;;5033151;28;20025;-37
2021/07/19 05:13:15;;;;;;;17.48;9.02;;;16.80;80.90;;;;;;5033023;28;20035;-37
2021/07/19 05:15:41;;;;;;;13.32;8.43;;;16.70;80.60;;;;;;5032870;28;20101;-37
2021/07/19 05:18:09;;;;;;;13.68;9.85;;;16.80;80.60;;;;;;5033232;28;20029;-37
2021/07/19 05:20:37;;;;;;;16.50;9.52;;;16.80;80.10;;;;;;5033040;28;20033;-37
2021/07/19 05:23:03;;;;;;;14.55;9.40;;;16.80;79.60;;;;;;5033033;28;20056;-37
2021/07/19 05:25:30;;;;;;;19.67;10.32;;;16.90;79.70;;;;;;5033161;28;20052;-38
2021/07/19 05:28:04;;;;;;;13.07;8.95;;;16.90;79.50;;;;;;5032962;28;20045;-37
2021/07/19 05:30:30;;;;;;;16.13;9.57;;;16.90;79.70;;;;;;5033069;28;20022;-37
2021/07/19 05:32:56;;;;;;;18.95;9.77;;;16.80;79.90;;;;;;5032753;28;20021;-37
2021/07/19 05:35:22;;;;;;;16.13;9.02;;;16.80;79.60;;;;;;5032609;28;20434;-37
2021/07/19 05:37:49;;;;;;;20.02;9.48;;;16.90;79.80;;;;;;5032862;28;20042;-37
2021/07/19 05:40:16;;;;;;;15.43;9.70;;;17.10;79.00;;;;;;5032605;28;20040;-37
2021/07/19 05:42:42;;;;;;;13.48;9.50;;;17.30;78.00;;;;;;5032611;28;20029;-37
2021/07/19 05:45:09;;;;;;;16.75;9.85;;;17.30;77.90;;;;;;5032596;28;20536;-37
2021/07/19 05:47:35;;;;;;;16.08;8.95;;;17.40;78.00;;;;;;5032524;28;20049;-37
2021/07/19 05:50:01;;;;;;;16.30;8.68;;;17.60;77.70;;;;;;5032555;28;20492;-37
2021/07/19 05:52:27;;;;;;;18.40;9.43;;;17.70;77.00;;;;;;5032472;28;20025;-37
2021/07/19 05:54:52;;;;;;;12.85;8.75;;;17.80;77.20;;;;;;5032429;28;20022;-37
2021/07/19 05:57:18;;;;;;;15.82;9.98;;;17.80;77.00;;;;;;5031564;28;20037;-40
2021/07/19 05:59:44;;;;;;;19.25;9.70;;;17.90;76.30;;;;;;5032447;28;20041;-37
2021/07/19 06:02:09;;;;;;;13.68;8.90;;;17.90;76.50;;;;;;5032769;28;20101;-37
2021/07/19 06:04:35;;;;;;;17.45;8.40;;;18.00;76.20;;;;;;5032357;28;20080;-37
2021/07/19 06:07:01;;;;;;;17.08;9.63;;;18.00;75.90;;;;;;5032390;28;20029;-37
2021/07/19 06:09:26;;;;;;;16.15;9.10;;;18.00;76.50;;;;;;5034293;28;20022;-37
2021/07/19 06:11:52;;;;;;;13.80;8.88;;;18.20;76.30;;;;;;5036468;28;20526;-37
2021/07/19 06:14:18;;;;;;;15.10;8.40;;;18.20;76.20;;;;;;5036162;28;20028;-37
2021/07/19 06:16:44;;;;;;;14.32;8.95;;;18.10;76.10;;;;;;5036626;28;20035;-37
2021/07/19 06:19:09;;;;;;;13.57;8.38;;;18.10;76.50;;;;;;5036194;28;20151;-37
2021/07/19 06:21:35;;;;;;;11.45;8.25;;;17.80;77.40;;;;;;5035821;28;20040;-37
2021/07/19 06:24:00;;;;;;;18.88;9.40;;;17.80;77.90;;;;;;5035900;28;20034;-37
2021/07/19 06:26:26;;;;;;;16.55;9.13;;;17.80;78.00;;;;;;5035768;28;20398;-37
2021/07/19 06:28:52;;;;;;;15.38;9.10;;;17.90;77.70;;;;;;5036640;28;20018;-37
2021/07/19 06:31:18;;;;;;;18.08;9.40;;;18.00;77.20;;;;;;5035821;28;20433;-37
2021/07/19 06:33:43;;;;;;;14.85;8.95;;;18.00;77.20;;;;;;5036097;28;20022;-37
2021/07/19 06:36:09;;;;;;;19.75;9.13;;;18.20;76.60;;;;;;5034703;28;20021;-37
2021/07/19 06:38:34;;;;;;;16.25;9.07;;;18.00;77.30;;;;;;5035559;28;20029;-36
2021/07/19 06:41:00;;;;;;;15.65;9.30;;;18.10;77.30;;;;;;5035769;28;20100;-35
2021/07/19 06:43:26;;;;;;;17.85;9.35;;;18.10;77.00;;;;;;5035495;28;20132;-36
2021/07/19 06:45:51;;;;;;;20.73;9.77;;;18.10;77.30;;;;;;5035444;28;20426;-39
2021/07/19 06:48:17;;;;;;;17.08;10.18;;;18.20;77.10;;;;;;5035611;28;20033;-36
2021/07/19 06:50:43;;;;;;;15.73;10.13;;;18.00;77.90;;;;;;5035474;28;20520;-37
2021/07/19 06:53:09;;;;;;;18.00;9.60;;;18.10;77.30;;;;;;5035610;28;20098;-37
2021/07/19 06:55:35;;;;;;;16.98;9.05;;;18.10;77.80;;;;;;5034348;28;20033;-37
2021/07/19 06:58:00;;;;;;;19.67;10.25;;;18.20;77.80;;;;;;5035649;28;20026;-37
2021/07/19 07:00:26;;;;;;;12.63;8.38;;;18.40;77.20;;;;;;5035622;28;20466;-37
2021/07/19 07:02:52;;;;;;;18.05;9.27;;;18.40;76.80;;;;;;5035748;28;20037;-36
2021/07/19 07:05:17;;;;;;;15.05;9.80;;;18.40;76.90;;;;;;5033282;28;20029;-37
2021/07/19 07:07:44;;;;;;;17.08;9.60;;;18.40;77.10;;;;;;5034494;28;20367;-35
2021/07/19 07:10:10;;;;;;;18.10;10.40;;;18.30;77.60;;;;;;5035675;28;20398;-36
2021/07/19 07:12:39;;;;;;;19.42;10.05;;;18.60;76.80;;;;;;5034898;28;20024;-36
2021/07/19 07:15:06;;;;;;;14.02;8.93;;;18.70;76.30;;;;;;5034918;28;20091;-37
2021/07/19 07:17:32;;;;;;;15.90;9.43;;;18.90;75.80;;;;;;5035043;28;20469;-36
2021/07/19 07:19:57;;;;;;;12.38;8.90;;;19.30;74.00;;;;;;5034108;28;20040;-36
2021/07/19 07:22:25;;;;;;;16.45;8.68;;;19.20;74.20;;;;;;5034687;28;20025;-37
2021/07/19 07:24:50;;;;;;;17.48;7.90;;;19.30;73.20;;;;;;5035326;28;20034;-36
2021/07/19 07:27:19;;;;;;;12.82;8.35;;;19.20;73.80;;;;;;5034414;28;20049;-37
2021/07/19 07:29:46;;;;;;;15.70;7.68;;;19.20;73.40;;;;;;5034928;28;20026;-36
2021/07/19 07:32:12;;;;;;;18.13;8.30;;;19.20;73.40;;;;;;5034533;28;20026;-37
2021/07/19 07:34:38;;;;;;;13.50;7.45;;;19.20;73.00;;;;;;5036511;28;20477;-36
2021/07/19 07:37:04;;;;;;;21.58;9.05;;;19.10;71.70;;;;;;5035097;28;20037;-36
2021/07/19 07:39:30;;;;;;;17.95;8.38;;;18.90;72.30;;;;;;5033946;28;20117;-37
2021/07/19 07:41:56;;;;;;;15.05;8.18;;;19.00;72.20;;;;;;5034683;28;20097;-37
2021/07/19 07:44:22;;;;;;;11.48;7.68;;;19.20;71.60;;;;;;5035257;28;20079;-37
2021/07/19 07:46:49;;;;;;;14.57;8.15;;;19.40;69.90;;;;;;5035114;28;20026;-37
2021/07/19 07:49:14;;;;;;;12.90;7.50;;;19.70;69.20;;;;;;5034155;28;20018;-37
2021/07/19 07:51:41;;;;;;;15.88;6.85;;;19.30;69.60;;;;;;5034169;28;20026;-37
2021/07/19 07:54:07;;;;;;;16.15;9.55;;;19.20;70.40;;;;;;5034833;28;20159;-38
2021/07/19 07:56:33;;;;;;;17.73;8.10;;;19.20;70.00;;;;;;5034064;28;20033;-37
2021/07/19 07:58:59;;;;;;;11.15;7.13;;;19.20;68.60;;;;;;5034456;28;20072;-37
2021/07/19 08:01:25;;;;;;;15.20;7.78;;;19.30;68.60;;;;;;5034147;28;20034;-36
2021/07/19 08:03:50;;;;;;;16.33;8.07;;;19.40;67.90;;;;;;5034548;28;20021;-37
2021/07/19 08:06:16;;;;;;;12.27;8.20;;;19.10;68.40;;;;;;5035125;28;20021;-37
2021/07/19 08:08:43;;;;;;;10.15;7.65;;;19.00;69.20;;;;;;5034672;28;20036;-37
2021/07/19 08:11:08;;;;;;;14.02;7.45;;;19.20;69.30;;;;;;5034072;28;20021;-37
2021/07/19 08:13:34;;;;;;;10.77;6.97;;;19.30;69.20;;;;;;5034372;28;20108;-37
2021/07/19 08:16:00;;;;;;;13.27;7.45;;;19.20;70.00;;;;;;5034315;28;20051;-37
2021/07/19 08:18:26;;;;;;;13.15;7.97;;;19.20;69.70;;;;;;5033625;28;20129;-37
2021/07/19 08:20:51;;;;;;;13.23;8.00;;;19.40;69.30;;;;;;5033207;28;20465;-37
2021/07/19 08:23:17;;;;;;;13.68;7.78;;;19.40;69.20;;;;;;5033607;28;20120;-37
2021/07/19 08:25:43;;;;;;;11.98;8.38;;;19.50;69.40;;;;;;5033229;28;20033;-37
2021/07/19 08:28:09;;;;;;;14.10;7.88;;;19.50;68.70;;;;;;5033425;28;20060;-37
2021/07/19 08:30:35;;;;;;;15.32;8.65;;;19.40;68.90;;;;;;5033066;28;20462;-36
2021/07/19 08:33:01;;;;;;;15.07;8.35;;;19.30;69.30;;;;;;5032619;28;20057;-37
2021/07/19 08:35:27;;;;;;;12.88;7.80;;;19.60;68.80;;;;;;5033124;28;20429;-37
2021/07/19 08:37:57;;;;;;;16.48;7.88;;;19.80;67.80;;;;;;5032763;28;20025;-37
2021/07/19 08:40:23;;;;;;;14.00;7.67;;;19.80;64.90;;;;;;5033493;28;20021;-36
2021/07/19 08:42:49;;;;;;;13.40;7.57;;;19.70;64.90;;;;;;5033372;28;20056;-37
2021/07/19 08:45:15;;;;;;;10.73;7.55;;;19.80;64.90;;;;;;5033086;28;20485;-37
2021/07/19 08:47:47;;;;;;;13.57;7.68;;;19.80;63.90;;;;;;5033863;28;20056;-37
2021/07/19 08:50:15;;;;;;;11.13;7.22;;;19.80;64.10;;;;;;5033554;28;20108;-37
2021/07/19 08:52:42;;;;;;;12.07;7.60;;;19.80;63.70;;;;;;5032916;28;20057;-46
2021/07/19 08:55:10;;;;;;;10.45;7.43;;;20.40;62.50;;;;;;5033054;28;20091;-35
2021/07/19 08:57:37;;;;;;;10.70;7.30;;;20.40;62.00;;;;;;5033065;28;20017;-38
2021/07/19 09:00:07;;;;;;;12.50;7.93;;;20.60;60.60;;;;;;5033188;28;20163;-40
2021/07/19 09:02:33;;;;;;;12.32;7.40;;;20.60;60.00;;;;;;5033055;28;20107;-36
2021/07/19 09:04:59;;;;;;;14.88;7.75;;;20.70;59.50;;;;;;5033587;28;20068;-37
2021/07/19 09:07:25;;;;;;;11.98;6.90;;;21.00;58.30;;;;;;5032885;28;20032;-37
2021/07/19 09:09:52;;;;;;;12.70;7.82;;;20.80;59.00;;;;;;5032102;28;20033;-37
2021/07/19 09:12:40;;;;;;;10.13;7.15;;;20.60;60.20;;;;;;5032725;28;20385;-37
2021/07/19 09:15:08;;;;;;;16.15;8.23;;;21.30;58.40;;;;;;5033220;28;20018;-37
2021/07/19 09:17:35;;;;;;;12.85;7.57;;;21.40;57.30;;;;;;5032615;28;20033;-38
2021/07/19 09:20:03;;;;;;;12.65;7.93;;;21.20;56.70;;;;;;5033195;28;20030;-38
2021/07/19 09:22:32;;;;;;;12.48;8.25;;;21.20;57.50;;;;;;5033861;28;20030;-38
2021/07/19 09:25:14;;;;;;;16.48;8.55;;;20.80;58.10;;;;;;5032044;28;20040;-36
2021/07/19 09:27:58;;;;;;;15.27;8.18;;;20.40;58.80;;;;;;5031667;28;20046;-37
2021/07/19 09:30:27;;;;;;;12.00;8.23;;;20.30;59.10;;;;;;5033967;28;20366;-36
2021/07/19 09:32:57;;;;;;;12.73;8.00;;;20.30;59.00;;;;;;5031654;28;20022;-38
2021/07/19 09:35:23;;;;;;;12.00;7.43;;;20.30;58.90;;;;;;5034856;28;20065;-37
2021/07/19 09:37:50;;;;;;;15.02;9.77;;;20.40;58.80;;;;;;5032162;28;20504;-38
2021/07/19 09:40:16;;;;;;;12.70;8.13;;;20.40;58.50;;;;;;5034615;28;20048;-37
2021/07/19 09:42:43;;;;;;;12.43;8.55;;;20.60;58.00;;;;;;5033488;28;20045;-37
2021/07/19 09:45:19;;;;;;;9.93;7.63;;;20.70;59.20;;;;;;5034921;28;20392;-37
2021/07/19 09:47:46;;;;;;;14.27;8.65;;;20.40;60.50;;;;;;5035859;28;20025;-37
2021/07/19 09:50:14;;;;;;;15.88;7.90;;;20.30;61.20;;;;;;5037076;28;20076;-37
2021/07/19 09:52:44;;;;;;;13.45;7.68;;;20.50;61.10;;;;;;5037549;28;20052;-52
2021/07/19 09:55:27;;;;;;;11.95;8.10;;;20.60;61.80;;;;;;5037161;28;20021;-49
2021/07/19 09:57:58;;;;;;;13.63;7.97;;;20.30;62.50;;;;;;5037393;28;20026;-49
2021/07/19 10:00:26;;;;;;;14.10;8.27;;;20.40;62.40;;;;;;5035958;28;20033;-49
2021/07/19 10:02:52;;;;;;;10.18;7.43;;;20.60;62.20;;;;;;5034989;28;20091;-49
2021/07/19 10:05:27;;;;;;;13.27;7.53;;;20.70;61.60;;;;;;5034893;28;20025;-51
2021/07/19 10:07:53;;;;;;;12.57;8.40;;;20.30;62.10;;;;;;5037374;28;20025;-50
2021/07/19 10:10:40;;;;;;;14.27;9.68;;;20.40;61.50;;;;;;5036873;28;20026;-51
2021/07/19 10:13:09;;;;;;;13.52;8.73;;;20.80;61.20;;;;;;5018549;28;20037;-52
2021/07/19 10:15:39;;;;;;;13.30;8.73;;;21.00;60.70;;;;;;5036115;28;20029;-47
2021/07/19 10:18:12;;;;;;;13.60;8.55;;;21.10;60.20;;;;;;5035384;28;20040;-49
2021/07/19 10:20:39;;;;;;;15.00;8.35;;;21.00;60.10;;;;;;5034443;28;20120;-48
2021/07/19 10:23:06;;;;;;;15.20;8.00;;;20.80;60.80;;;;;;5036567;28;20034;-48
2021/07/19 10:25:34;;;;;;;16.10;9.32;;;21.00;60.30;;;;;;5036447;28;20052;-53
2021/07/19 10:28:00;;;;;;;11.77;8.02;;;20.80;60.20;;;;;;5035154;28;20053;-50
2021/07/19 10:30:26;;;;;;;15.52;8.55;;;21.10;59.70;;;;;;5034894;28;20488;-48
2021/07/19 10:32:52;;;;;;;21.02;11.05;;;21.00;60.30;;;;;;5037375;28;20064;-51
2021/07/19 10:35:19;;;;;;;10.30;7.78;;;20.80;60.40;;;;;;5037630;28;20071;-53
2021/07/19 10:37:48;;;;;;;15.68;9.38;;;21.20;59.40;;;;;;5035693;28;20025;-52
2021/07/19 10:40:20;;;;;;;15.02;7.97;;;21.70;58.30;;;;;;5034350;28;20067;-49
2021/07/19 10:42:47;;;;;;;13.57;8.32;;;21.40;58.00;;;;;;5035606;28;20381;-47
2021/07/19 10:45:15;;;;;;;15.23;8.50;;;21.30;58.70;;;;;;5035652;28;20036;-51
2021/07/19 10:47:57;;;;;;;13.05;8.65;;;21.80;57.40;;;;;;5034214;28;20025;-49
2021/07/19 10:50:26;;;;;;;15.65;9.27;;;21.80;56.60;;;;;;5036152;28;20022;-52
2021/07/19 10:52:56;;;;;;;18.15;12.23;;;22.00;56.30;;;;;;5035395;28;20489;-52
2021/07/19 10:55:32;;;;;;;16.75;10.70;;;22.30;55.50;;;;;;5035687;28;20028;-49
2021/07/19 10:58:07;;;;;;;13.98;9.75;;;22.20;55.60;;;;;;5036132;28;20037;-50
2021/07/19 11:00:41;;;;;;;13.48;8.63;;;21.80;57.00;;;;;;5035757;28;20083;-47
2021/07/19 11:03:12;;;;;;;15.38;8.60;;;21.30;58.00;;;;;;5035768;28;20029;-53
2021/07/19 11:05:50;;;;;;;15.60;9.00;;;21.30;58.50;;;;;;5036608;28;20029;-49
2021/07/19 11:08:33;;;;;;;12.90;8.85;;;21.40;58.40;;;;;;5036425;28;20487;-50
2021/07/19 11:10:59;;;;;;;13.80;9.20;;;21.10;58.70;;;;;;5035403;28;20014;-51
2021/07/19 11:13:33;;;;;;;12.68;8.00;;;20.80;59.30;;;;;;5035261;28;20484;-48
2021/07/19 11:16:01;;;;;;;17.85;10.50;;;21.00;59.40;;;;;;5035058;28;20454;-48
2021/07/19 11:18:29;;;;;;;17.35;8.57;;;21.00;59.50;;;;;;5035341;28;20029;-49
2021/07/19 11:20:58;;;;;;;14.77;8.23;;;21.50;58.10;;;;;;5034493;28;20032;-51
2021/07/19 11:23:31;;;;;;;15.50;10.13;;;21.30;58.00;;;;;;5034618;28;20032;-48
2021/07/19 11:25:59;;;;;;;15.15;8.25;;;21.50;57.80;;;;;;5034727;28;20187;-50
2021/07/19 11:28:27;;;;;;;17.17;9.10;;;21.80;56.80;;;;;;5034735;28;20021;-50
2021/07/19 11:31:13;;;;;;;15.98;9.02;;;22.20;56.60;;;;;;5035622;28;20025;-52
2021/07/19 11:33:40;;;;;;;16.75;9.15;;;22.30;55.90;;;;;;5034620;28;20022;-50
2021/07/19 11:36:45;;;;;;;15.00;8.90;;;22.10;56.30;;;;;;5036057;28;20346;-48
2021/07/19 11:39:17;;;;;;;16.17;10.05;;;22.40;55.90;;;;;;5032570;28;20401;-49
2021/07/19 11:41:43;;;;;;;14.02;10.15;;;22.80;54.40;;;;;;5034475;28;20112;-48
2021/07/19 11:44:15;;;;;;;15.95;9.55;;;23.20;53.80;;;;;;5034559;28;20477;-49
2021/07/19 11:46:41;;;;;;;17.80;9.20;;;22.80;54.20;;;;;;5033097;28;20047;-48
2021/07/19 11:49:10;;;;;;;15.77;9.63;;;22.70;54.60;;;;;;5034129;28;20136;-48
2021/07/19 11:51:42;;;;;;;12.80;9.35;;;22.80;54.80;;;;;;5034224;28;20385;-49
2021/07/19 11:54:11;;;;;;;16.20;9.48;;;23.40;53.10;;;;;;5034542;28;20385;-51
2021/07/19 11:56:44;;;;;;;15.45;9.43;;;24.40;50.70;;;;;;5034802;28;20026;-48
2021/07/19 11:59:10;;;;;;;13.48;9.10;;;24.70;49.20;;;;;;5035096;28;20427;-49
2021/07/19 12:01:36;;;;;;;19.40;10.75;;;24.90;48.60;;;;;;5033583;28;20033;-49
2021/07/19 12:04:04;;;;;;;13.98;10.38;;;24.60;49.40;;;;;;5035657;28;20036;-49
2021/07/19 12:06:31;;;;;;;18.58;10.18;;;24.20;50.60;;;;;;5032857;28;20026;-49
2021/07/19 12:09:02;;;;;;;15.40;11.20;;;24.00;50.90;;;;;;5033634;28;20021;-53
2021/07/19 12:11:31;;;;;;;13.60;8.77;;;23.80;51.70;;;;;;5033757;28;20032;-52
2021/07/19 12:14:09;;;;;;;12.38;9.32;;;24.00;50.70;;;;;;5033533;28;20037;-53
2021/07/19 12:16:39;;;;;;;15.70;10.73;;;24.10;51.00;;;;;;5033991;28;20082;-53
2021/07/19 12:19:06;;;;;;;19.10;10.30;;;24.00;50.90;;;;;;5033616;28;20017;-51
2021/07/19 12:21:53;;;;;;;14.05;8.98;;;24.30;50.50;;;;;;5033984;28;20026;-49
2021/07/19 12:24:26;;;;;;;13.82;9.02;;;24.00;50.70;;;;;;5033723;28;20469;-49
2021/07/19 12:26:57;;;;;;;17.25;10.77;;;23.80;50.80;;;;;;5033090;28;20045;-49
2021/07/19 12:29:29;;;;;;;17.50;9.20;;;23.90;51.20;;;;;;5033426;28;20084;-51
2021/07/19 12:31:58;;;;;;;13.75;9.20;;;23.30;53.00;;;;;;5033479;28;20021;-49
2021/07/19 12:34:30;;;;;;;14.25;10.07;;;23.80;52.00;;;;;;5033928;28;20562;-48
2021/07/19 12:37:03;;;;;;;15.05;10.55;;;23.40;52.60;;;;;;5033214;28;20393;-48
2021/07/19 12:39:37;;;;;;;13.43;10.00;;;23.00;53.30;;;;;;5032819;28;20140;-48
2021/07/19 12:42:26;;;;;;;14.65;9.90;;;23.30;53.00;;;;;;5032429;28;20029;-49
2021/07/19 12:44:54;;;;;;;15.70;9.13;;;23.20;53.40;;;;;;5034119;28;20017;-48